Time,TemperatureF,DewpointF,PressureIn,WindDirection,WindDirectionDegrees,WindSpeedMPH,WindSpeedGustMPH,Humidity,HourlyPrecipIn,Conditions,Clouds,dailyrainin,SoftwareType,DateUTC
2013-07-06 00:01:00,70.7,65.3,30.11,SSW,202,0.0,0.0,83,0.00,RMK 75.4/53.0,,0.00,WUHU21623XXSP,2013-07-06 04:01:00,
2013-07-06 00:06:00,70.7,65.3,30.10,SSW,202,0.0,0.0,83,0.00,RMK 75.4/53.0,,0.00,WUHU21623XXSP,2013-07-06 04:06:00,
2013-07-06 00:11:00,70.6,65.2,30.11,SSW,202,0.0,0.0,83,0.00,RMK 75.4/53.0,,0.00,WUHU21623XXSP,2013-07-06 04:11:00,
2013-07-06 00:16:00,70.6,65.2,30.11,SSW,202,0.0,0.0,83,0.00,RMK 75.4/53.0,,0.00,WUHU21623XXSP,2013-07-06 04:16:00,
2013-07-06 00:21:00,70.4,65.0,30.11,SSW,202,0.0,0.0,83,0.00,RMK 75.4/53.0,,0.00,WUHU21623XXSP,2013-07-06 04:21:00,
2013-07-06 00:26:00,70.2,64.8,30.11,SSW,202,0.0,0.0,83,0.00,RMK 75.6/53.0,,0.00,WUHU21623XXSP,2013-07-06 04:26:00,
2013-07-06 00:31:00,70.0,64.6,30.11,SSW,202,0.0,0.0,83,0.00,RMK 75.4/53.0,,0.00,WUHU21623XXSP,2013-07-06 04:31:00,
2013-07-06 00:36:00,70.0,65.0,30.11,SSW,202,0.0,0.0,84,0.00,RMK 75.4/53.0,,0.00,WUHU21623XXSP,2013-07-06 04:36:00,
2013-07-06 00:41:00,69.8,64.8,30.11,SSW,202,0.0,0.0,84,0.00,RMK 75.6/53.0,,0.00,WUHU21623XXSP,2013-07-06 04:41:00,
2013-07-06 00:46:00,69.8,64.8,30.11,SSW,202,0.0,0.0,84,0.00,RMK 75.6/53.0,,0.00,WUHU21623XXSP,2013-07-06 04:46:00,
2013-07-06 00:51:00,69.8,64.8,30.11,SSW,202,0.0,0.0,84,0.00,RMK 75.6/53.0,,0.00,WUHU21623XXSP,2013-07-06 04:51:00,
2013-07-06 00:56:00,69.7,64.7,30.11,SSW,202,0.0,0.0,84,0.00,RMK 75.6/53.0,,0.00,WUHU21623XXSP,2013-07-06 04:56:00,
2013-07-06 01:01:00,69.5,64.5,30.11,SSW,202,0.0,0.0,84,0.00,RMK 75.6/53.0,,0.00,WUHU21623XXSP,2013-07-06 05:01:00,
2013-07-06 01:06:00,69.5,64.8,30.11,SSW,202,0.0,0.0,85,0.00,RMK 75.6/53.0,,0.00,WUHU21623XXSP,2013-07-06 05:06:00,
2013-07-06 01:11:00,69.3,64.6,30.11,SSW,202,0.0,0.0,85,0.00,RMK 75.6/53.0,,0.00,WUHU21623XXSP,2013-07-06 05:11:00,
2013-07-06 01:16:00,69.1,64.4,30.10,SSW,202,0.0,0.0,85,0.00,RMK 75.6/53.0,,0.00,WUHU21623XXSP,2013-07-06 05:16:00,
2013-07-06 01:21:00,69.1,64.7,30.11,SSW,202,0.0,0.0,86,0.00,RMK 75.6/53.0,,0.00,WUHU21623XXSP,2013-07-06 05:21:00,
2013-07-06 01:26:00,69.1,64.7,30.11,SSW,202,0.0,0.0,86,0.00,RMK 75.6/53.0,,0.00,WUHU21623XXSP,2013-07-06 05:26:00,
2013-07-06 01:31:00,68.9,64.6,30.11,SSW,202,0.0,0.0,86,0.00,RMK 75.6/53.0,,0.00,WUHU21623XXSP,2013-07-06 05:31:00,
2013-07-06 01:36:00,68.9,64.6,30.11,SSW,202,0.0,0.0,86,0.00,RMK 75.6/53.0,,0.00,WUHU21623XXSP,2013-07-06 05:36:00,
2013-07-06 01:41:00,68.9,64.6,30.11,SSW,202,0.0,0.0,86,0.00,RMK 75.6/53.0,,0.00,WUHU21623XXSP,2013-07-06 05:41:00,
2013-07-06 01:46:00,68.9,64.6,30.11,SSW,202,0.0,0.0,86,0.00,RMK 75.6/53.0,,0.00,WUHU21623XXSP,2013-07-06 05:46:00,
2013-07-06 01:51:00,68.8,64.8,30.11,SSW,202,0.0,0.0,87,0.00,RMK 75.6/53.0,,0.00,WUHU21623XXSP,2013-07-06 05:51:00,
2013-07-06 01:56:00,68.8,64.8,30.11,SSW,202,0.0,0.0,87,0.00,RMK 75.6/53.0,,0.00,WUHU21623XXSP,2013-07-06 05:56:00,
2013-07-06 02:01:00,68.9,64.9,30.11,SSW,202,0.0,0.0,87,0.00,RMK 75.6/53.0,,0.00,WUHU21623XXSP,2013-07-06 06:01:00,
2013-07-06 02:06:00,68.8,65.1,30.11,SSW,202,0.0,0.0,88,0.00,RMK 75.6/53.0,,0.00,WUHU21623XXSP,2013-07-06 06:06:00,
2013-07-06 02:11:00,68.8,65.1,30.11,SSW,202,0.0,0.0,88,0.00,RMK 75.6/53.0,,0.00,WUHU21623XXSP,2013-07-06 06:11:00,
2013-07-06 02:16:00,68.8,65.1,30.10,SSW,202,0.0,0.0,88,0.00,RMK 75.6/53.0,,0.00,WUHU21623XXSP,2013-07-06 06:16:00,
2013-07-06 02:21:00,68.8,65.1,30.10,SSW,202,0.0,0.0,88,0.00,RMK 75.6/53.0,,0.00,WUHU21623XXSP,2013-07-06 06:21:00,
2013-07-06 02:26:00,68.9,65.2,30.10,SSW,202,0.0,0.0,88,0.00,RMK 75.6/53.0,,0.00,WUHU21623XXSP,2013-07-06 06:26:00,
2013-07-06 02:31:00,68.9,65.2,30.10,SSW,202,0.0,0.0,88,0.00,RMK 75.6/53.0,,0.00,WUHU21623XXSP,2013-07-06 06:31:00,
2013-07-06 02:36:00,68.9,65.5,30.10,SSW,202,0.0,0.0,89,0.00,RMK 75.6/53.0,,0.00,WUHU21623XXSP,2013-07-06 06:36:00,
2013-07-06 02:41:00,68.9,65.5,30.10,SW,225,0.0,0.0,89,0.00,RMK 75.6/53.0,,0.00,WUHU21623XXSP,2013-07-06 06:41:00,
2013-07-06 02:46:00,69.1,65.7,30.11,SW,225,0.0,0.0,89,0.00,RMK 75.6/53.0,,0.00,WUHU21623XXSP,2013-07-06 06:46:00,
2013-07-06 02:51:00,69.1,65.7,30.10,SSW,202,0.0,0.0,89,0.00,RMK 75.6/53.0,,0.00,WUHU21623XXSP,2013-07-06 06:51:00,
2013-07-06 02:56:00,69.1,65.7,30.10,SW,225,0.0,0.0,89,0.00,RMK 75.6/53.0,,0.00,WUHU21623XXSP,2013-07-06 06:56:00,
2013-07-06 03:01:00,69.1,65.7,30.10,SSW,202,0.0,0.0,89,0.00,RMK 75.6/54.0,,0.00,WUHU21623XXSP,2013-07-06 07:01:00,
2013-07-06 03:06:00,69.1,65.7,30.10,SSW,202,0.0,0.0,89,0.00,RMK 75.6/54.0,,0.00,WUHU21623XXSP,2013-07-06 07:06:00,
2013-07-06 03:11:00,69.1,65.7,30.10,SSW,202,0.0,0.0,89,0.00,RMK 75.6/54.0,,0.00,WUHU21623XXSP,2013-07-06 07:11:00,
2013-07-06 03:17:00,69.1,65.7,30.10,SSW,202,0.0,0.0,89,0.00,RMK 75.6/54.0,,0.00,WUHU21623XXSP,2013-07-06 07:17:00,
2013-07-06 03:22:00,69.1,65.7,30.10,SSW,202,0.0,0.0,89,0.00,RMK 75.6/54.0,,0.00,WUHU21623XXSP,2013-07-06 07:22:00,
2013-07-06 03:27:00,68.9,65.5,30.10,SSW,202,0.0,0.0,89,0.00,RMK 75.6/54.0,,0.00,WUHU21623XXSP,2013-07-06 07:27:00,
2013-07-06 03:32:00,68.9,65.5,30.10,SSW,202,0.0,0.0,89,0.00,RMK 75.6/54.0,,0.00,WUHU21623XXSP,2013-07-06 07:32:00,
2013-07-06 03:37:00,68.9,65.5,30.10,SSW,202,0.0,0.0,89,0.00,RMK 75.6/54.0,,0.00,WUHU21623XXSP,2013-07-06 07:37:00,
2013-07-06 03:42:00,68.9,65.5,30.10,SSW,202,0.0,0.0,89,0.00,RMK 75.6/54.0,,0.00,WUHU21623XXSP,2013-07-06 07:42:00,
2013-07-06 03:47:00,68.8,65.4,30.10,SSW,202,0.0,0.0,89,0.00,RMK 75.6/54.0,,0.00,WUHU21623XXSP,2013-07-06 07:47:00,
2013-07-06 03:52:00,68.8,65.7,30.10,SSW,202,0.0,0.0,90,0.00,RMK 75.6/54.0,,0.00,WUHU21623XXSP,2013-07-06 07:52:00,
2013-07-06 03:57:00,68.8,65.7,30.10,SSW,202,0.0,0.0,90,0.00,RMK 75.6/54.0,,0.00,WUHU21623XXSP,2013-07-06 07:57:00,
2013-07-06 04:02:00,68.6,65.5,30.10,SSW,202,0.0,0.0,90,0.00,RMK 75.6/54.0,,0.00,WUHU21623XXSP,2013-07-06 08:02:00,
2013-07-06 04:07:00,68.6,65.5,30.10,SSW,202,0.0,0.0,90,0.00,RMK 75.6/55.0,,0.00,WUHU21623XXSP,2013-07-06 08:07:00,
2013-07-06 04:12:00,68.6,65.5,30.10,SSW,202,0.0,0.0,90,0.00,RMK 75.6/55.0,,0.00,WUHU21623XXSP,2013-07-06 08:12:00,
2013-07-06 04:17:00,68.6,65.5,30.10,SSW,202,0.0,0.0,90,0.00,RMK 75.6/55.0,,0.00,WUHU21623XXSP,2013-07-06 08:17:00,
2013-07-06 04:22:00,68.6,65.5,30.10,SSW,202,0.0,0.0,90,0.00,RMK 75.6/55.0,,0.00,WUHU21623XXSP,2013-07-06 08:22:00,
2013-07-06 04:27:00,68.6,65.5,30.10,SSW,202,0.0,0.0,90,0.00,RMK 75.6/55.0,,0.00,WUHU21623XXSP,2013-07-06 08:27:00,
2013-07-06 04:32:00,68.4,65.6,30.10,SW,225,0.0,0.0,91,0.00,RMK 75.6/55.0,,0.00,WUHU21623XXSP,2013-07-06 08:32:00,
2013-07-06 04:37:00,68.4,65.6,30.10,SW,225,0.0,0.0,91,0.00,RMK 75.6/55.0,,0.00,WUHU21623XXSP,2013-07-06 08:37:00,
2013-07-06 04:42:00,68.4,65.6,30.10,SW,225,0.0,0.0,91,0.00,RMK 75.6/55.0,,0.00,WUHU21623XXSP,2013-07-06 08:42:00,
2013-07-06 04:47:00,68.2,65.4,30.10,SW,225,0.0,0.0,91,0.00,RMK 75.6/55.0,,0.00,WUHU21623XXSP,2013-07-06 08:47:00,
2013-07-06 04:52:00,68.2,65.4,30.10,SSW,202,0.0,0.0,91,0.00,RMK 75.6/55.0,,0.00,WUHU21623XXSP,2013-07-06 08:52:00,
2013-07-06 04:57:00,68.2,65.4,30.10,SSW,202,0.0,0.0,91,0.00,RMK 75.6/55.0,,0.00,WUHU21623XXSP,2013-07-06 08:57:00,
2013-07-06 05:02:00,68.0,65.2,30.10,SSW,202,0.0,0.0,91,0.00,RMK 75.6/55.0,,0.00,WUHU21623XXSP,2013-07-06 09:02:00,
2013-07-06 05:07:00,68.0,65.2,30.10,SSW,202,0.0,0.0,91,0.00,RMK 75.6/55.0,,0.00,WUHU21623XXSP,2013-07-06 09:07:00,
2013-07-06 05:12:00,68.0,65.2,30.10,SSW,202,0.0,0.0,91,0.00,RMK 75.6/55.0,,0.00,WUHU21623XXSP,2013-07-06 09:12:00,
2013-07-06 05:17:00,67.9,65.2,30.10,SSW,202,0.0,0.0,91,0.00,RMK 75.6/55.0,,0.00,WUHU21623XXSP,2013-07-06 09:17:00,
2013-07-06 05:22:00,67.7,65.0,30.10,SSW,202,0.0,0.0,91,0.00,RMK 75.6/55.0,,0.00,WUHU21623XXSP,2013-07-06 09:22:00,
2013-07-06 05:27:00,67.7,65.0,30.11,SSW,202,0.0,0.0,91,0.00,RMK 75.6/55.0,,0.00,WUHU21623XXSP,2013-07-06 09:27:00,
2013-07-06 05:32:00,67.7,65.0,30.11,SSW,202,0.0,0.0,91,0.00,RMK 75.6/55.0,,0.00,WUHU21623XXSP,2013-07-06 09:32:00,
2013-07-06 05:37:00,67.5,64.8,30.11,SSW,202,0.0,0.0,91,0.00,RMK 75.6/55.0,,0.00,WUHU21623XXSP,2013-07-06 09:37:00,
2013-07-06 05:42:00,67.3,64.6,30.11,SSW,202,0.0,0.0,91,0.00,RMK 75.6/55.0,,0.00,WUHU21623XXSP,2013-07-06 09:42:00,
2013-07-06 05:48:00,67.3,64.6,30.11,SSW,202,0.0,0.0,91,0.00,RMK 75.6/55.0,,0.00,WUHU21623XXSP,2013-07-06 09:48:00,
2013-07-06 05:53:00,67.1,64.4,30.11,SSW,202,0.0,0.0,91,0.00,RMK 75.6/55.0,,0.00,WUHU21623XXSP,2013-07-06 09:53:00,
2013-07-06 05:58:00,67.1,64.4,30.11,SSW,202,0.0,0.0,91,0.00,RMK 75.6/55.0,,0.00,WUHU21623XXSP,2013-07-06 09:58:00,
2013-07-06 06:03:00,66.8,64.1,30.11,SSW,202,0.0,0.0,91,0.00,RMK 75.6/55.0,,0.00,WUHU21623XXSP,2013-07-06 10:03:00,
2013-07-06 06:08:00,66.8,64.1,30.11,SSW,202,0.0,0.0,91,0.00,RMK 75.6/55.0,,0.00,WUHU21623XXSP,2013-07-06 10:08:00,
2013-07-06 06:13:00,66.8,64.1,30.11,SSW,202,0.0,0.0,91,0.00,RMK 75.6/55.0,,0.00,WUHU21623XXSP,2013-07-06 10:13:00,
2013-07-06 06:18:00,66.8,64.1,30.11,SSW,202,0.0,0.0,91,0.00,RMK 75.6/55.0,,0.00,WUHU21623XXSP,2013-07-06 10:18:00,
2013-07-06 06:23:00,66.6,63.9,30.11,SSW,202,0.0,0.0,91,0.00,RMK 75.6/55.0,,0.00,WUHU21623XXSP,2013-07-06 10:23:00,
2013-07-06 06:28:00,66.6,63.9,30.11,SSW,202,0.0,0.0,91,0.00,RMK 75.6/55.0,,0.00,WUHU21623XXSP,2013-07-06 10:28:00,
2013-07-06 06:33:00,66.6,63.9,30.11,SSW,202,0.0,0.0,91,0.00,RMK 75.6/55.0,,0.00,WUHU21623XXSP,2013-07-06 10:33:00,
2013-07-06 06:38:00,66.6,63.9,30.11,SSW,202,0.0,0.0,91,0.00,RMK 75.6/55.0,,0.00,WUHU21623XXSP,2013-07-06 10:38:00,
2013-07-06 06:43:00,66.8,64.1,30.11,SSW,202,0.0,0.0,91,0.00,RMK 75.6/55.0,,0.00,WUHU21623XXSP,2013-07-06 10:43:00,
2013-07-06 06:48:00,66.8,64.1,30.11,SSW,202,0.0,0.0,91,0.00,RMK 75.6/55.0,,0.00,WUHU21623XXSP,2013-07-06 10:48:00,
2013-07-06 06:53:00,66.8,64.1,30.11,SSW,202,0.0,0.0,91,0.00,RMK 75.6/55.0,,0.00,WUHU21623XXSP,2013-07-06 10:53:00,
2013-07-06 06:58:00,66.8,64.4,30.11,SSW,202,0.0,0.0,92,0.00,RMK 75.6/55.0,,0.00,WUHU21623XXSP,2013-07-06 10:58:00,
2013-07-06 07:03:00,66.8,64.4,30.11,SSW,202,0.0,0.0,92,0.00,RMK 75.6/55.0,,0.00,WUHU21623XXSP,2013-07-06 11:03:00,
2013-07-06 07:08:00,66.8,64.4,30.12,SSW,202,0.0,0.0,92,0.00,RMK 75.6/55.0,,0.00,WUHU21623XXSP,2013-07-06 11:08:00,
2013-07-06 07:13:00,66.8,64.4,30.12,SSW,202,0.0,0.0,92,0.00,RMK 75.6/55.0,,0.00,WUHU21623XXSP,2013-07-06 11:13:00,
2013-07-06 07:18:00,67.1,64.7,30.11,SSW,202,0.0,0.0,92,0.00,RMK 75.6/55.0,,0.00,WUHU21623XXSP,2013-07-06 11:18:00,
2013-07-06 07:23:00,67.1,64.7,30.11,SSW,202,0.0,0.0,92,0.00,RMK 75.6/55.0,,0.00,WUHU21623XXSP,2013-07-06 11:23:00,
2013-07-06 07:28:00,67.3,64.9,30.11,SSW,202,0.0,0.0,92,0.00,RMK 75.6/55.0,,0.00,WUHU21623XXSP,2013-07-06 11:28:00,
2013-07-06 07:33:00,67.3,64.9,30.11,SSW,202,0.0,0.0,92,0.00,RMK 75.6/55.0,,0.00,WUHU21623XXSP,2013-07-06 11:33:00,
2013-07-06 07:38:00,67.7,65.6,30.11,SSW,202,0.0,0.0,93,0.00,RMK 75.6/55.0,,0.00,WUHU21623XXSP,2013-07-06 11:38:00,
2013-07-06 07:43:00,68.0,65.9,30.11,SSW,202,0.0,0.0,93,0.00,RMK 75.6/55.0,,0.00,WUHU21623XXSP,2013-07-06 11:43:00,
2013-07-06 07:48:00,68.2,66.1,30.11,NW,315,0.0,0.0,93,0.00,RMK 75.6/55.0,,0.00,WUHU21623XXSP,2013-07-06 11:48:00,
2013-07-06 07:53:00,68.4,66.0,30.12,NNW,337,0.0,0.0,92,0.00,RMK 75.6/55.0,,0.00,WUHU21623XXSP,2013-07-06 11:53:00,
2013-07-06 07:58:00,68.6,66.2,30.11,NNW,337,0.0,0.0,92,0.00,RMK 75.6/56.0,,0.00,WUHU21623XXSP,2013-07-06 11:58:00,
2013-07-06 08:03:00,68.9,66.5,30.11,NNW,337,0.0,0.0,92,0.00,RMK 75.6/56.0,,0.00,WUHU21623XXSP,2013-07-06 12:03:00,
2013-07-06 08:08:00,69.1,66.6,30.12,NW,315,0.0,0.0,92,0.00,RMK 75.6/56.0,,0.00,WUHU21623XXSP,2013-07-06 12:08:00,
2013-07-06 08:13:00,69.5,67.0,30.13,NW,315,0.0,0.0,92,0.00,RMK 75.6/57.0,,0.00,WUHU21623XXSP,2013-07-06 12:13:00,
2013-07-06 08:18:00,69.8,67.3,30.12,NW,315,0.0,0.0,92,0.00,RMK 75.6/56.0,,0.00,WUHU21623XXSP,2013-07-06 12:18:00,
2013-07-06 08:23:00,70.2,67.7,30.12,NW,315,0.0,0.0,92,0.00,RMK 75.6/56.0,,0.00,WUHU21623XXSP,2013-07-06 12:23:00,
2013-07-06 08:28:00,70.7,67.9,30.12,WNW,292,0.0,0.0,91,0.00,RMK 75.6/56.0,,0.00,WUHU21623XXSP,2013-07-06 12:28:00,
2013-07-06 08:33:00,70.9,67.8,30.12,WNW,292,0.0,0.0,90,0.00,RMK 75.6/56.0,,0.00,WUHU21623XXSP,2013-07-06 12:33:00,
2013-07-06 08:38:00,71.3,68.2,30.12,SW,225,0.0,0.0,90,0.00,RMK 75.6/55.0,,0.00,WUHU21623XXSP,2013-07-06 12:38:00,
2013-07-06 08:43:00,71.8,68.4,30.12,South,180,0.0,0.0,89,0.00,RMK 75.6/55.0,,0.00,WUHU21623XXSP,2013-07-06 12:43:00,
2013-07-06 08:48:00,72.2,68.4,30.12,South,180,0.0,0.0,88,0.00,RMK 75.6/55.0,,0.00,WUHU21623XXSP,2013-07-06 12:48:00,
2013-07-06 08:53:00,72.7,68.9,30.12,South,180,0.0,0.0,88,0.00,RMK 75.6/54.0,,0.00,WUHU21623XXSP,2013-07-06 12:53:00,
2013-07-06 08:58:00,73.6,69.5,30.12,NNE,22,0.0,0.0,87,0.00,RMK 75.7/53.0,,0.00,WUHU21623XXSP,2013-07-06 12:58:00,
2013-07-06 09:03:00,74.0,69.2,30.12,NNE,22,0.0,0.0,85,0.00,RMK 75.7/53.0,,0.00,WUHU21623XXSP,2013-07-06 13:03:00,
2013-07-06 09:08:00,74.5,69.4,30.12,NNE,22,0.0,0.0,84,0.00,RMK 75.7/53.0,,0.00,WUHU21623XXSP,2013-07-06 13:08:00,
2013-07-06 09:13:00,75.4,69.9,30.12,North,0,0.0,0.0,83,0.00,RMK 75.9/52.0,,0.00,WUHU21623XXSP,2013-07-06 13:13:00,
2013-07-06 09:18:00,75.8,69.6,30.12,WSW,247,0.0,0.0,81,0.00,RMK 75.9/52.0,,0.00,WUHU21623XXSP,2013-07-06 13:18:00,
2013-07-06 09:23:00,75.8,69.6,30.12,WSW,247,0.0,0.0,81,0.00,RMK 75.9/52.0,,0.00,WUHU21623XXSP,2013-07-06 13:23:00,
2013-07-06 09:28:00,75.8,69.3,30.12,WSW,247,0.0,0.0,80,0.00,RMK 75.9/52.0,,0.00,WUHU21623XXSP,2013-07-06 13:28:00,
2013-07-06 09:33:00,76.1,69.9,30.12,WSW,247,0.0,0.0,81,0.00,RMK 75.9/52.0,,0.00,WUHU21623XXSP,2013-07-06 13:33:00,
2013-07-06 09:38:00,76.3,70.1,30.12,SSE,157,0.0,0.0,81,0.00,RMK 75.9/52.0,,0.00,WUHU21623XXSP,2013-07-06 13:38:00,
2013-07-06 09:43:00,76.1,70.3,30.12,SSE,157,0.0,0.0,82,0.00,RMK 75.9/51.0,,0.00,WUHU21623XXSP,2013-07-06 13:43:00,
2013-07-06 09:48:00,76.9,70.4,30.12,South,180,0.0,0.0,80,0.00,RMK 75.9/51.0,,0.00,WUHU21623XXSP,2013-07-06 13:48:00,
2013-07-06 09:53:00,77.2,70.7,30.12,South,180,0.0,0.0,80,0.00,RMK 75.9/51.0,,0.00,WUHU21623XXSP,2013-07-06 13:53:00,
2013-07-06 09:58:00,77.2,69.9,30.12,SW,225,0.0,0.0,78,0.00,RMK 75.9/51.0,,0.00,WUHU21623XXSP,2013-07-06 13:58:00,
2013-07-06 10:03:00,77.4,70.5,30.12,SW,225,0.0,0.0,79,0.00,RMK 75.9/51.0,,0.00,WUHU21623XXSP,2013-07-06 14:03:00,
2013-07-06 10:08:00,77.2,70.3,30.12,SSE,157,0.0,0.0,79,0.00,RMK 75.9/51.0,,0.00,WUHU21623XXSP,2013-07-06 14:08:00,
2013-07-06 10:13:00,77.4,70.5,30.12,SSE,157,0.0,0.0,79,0.00,RMK 75.9/51.0,,0.00,WUHU21623XXSP,2013-07-06 14:13:00,
2013-07-06 10:18:00,78.5,70.8,30.11,SSW,202,0.0,0.0,77,0.00,RMK 75.9/51.0,,0.00,WUHU21623XXSP,2013-07-06 14:18:00,
2013-07-06 10:23:00,79.0,70.9,30.11,SW,225,0.0,0.0,76,0.00,RMK 75.9/50.0,,0.00,WUHU21623XXSP,2013-07-06 14:23:00,
2013-07-06 10:28:00,79.9,71.4,30.11,SW,225,0.0,0.0,75,0.00,RMK 75.9/50.0,,0.00,WUHU21623XXSP,2013-07-06 14:28:00,
2013-07-06 10:33:00,80.5,71.2,30.11,SW,225,0.0,0.0,73,0.00,RMK 75.9/50.0,,0.00,WUHU21623XXSP,2013-07-06 14:33:00,
2013-07-06 10:39:00,81.0,71.7,30.11,SW,225,0.0,0.0,73,0.00,RMK 75.9/50.0,,0.00,WUHU21623XXSP,2013-07-06 14:39:00,
2013-07-06 10:44:00,81.0,71.3,30.11,WSW,247,0.0,0.0,72,0.00,RMK 75.9/50.0,,0.00,WUHU21623XXSP,2013-07-06 14:44:00,
2013-07-06 10:49:00,81.2,71.5,30.11,SSE,157,0.0,0.0,72,0.00,RMK 75.9/50.0,,0.00,WUHU21623XXSP,2013-07-06 14:49:00,
2013-07-06 10:54:00,81.5,71.0,30.11,South,180,0.0,0.0,70,0.00,RMK 75.9/50.0,,0.00,WUHU21623XXSP,2013-07-06 14:54:00,
2013-07-06 10:59:00,81.5,70.6,30.11,SSE,157,0.0,0.0,69,0.00,RMK 75.9/50.0,,0.00,WUHU21623XXSP,2013-07-06 14:59:00,
2013-07-06 11:04:00,82.1,70.7,30.11,SSW,202,0.0,0.0,68,0.00,RMK 75.9/50.0,,0.00,WUHU21623XXSP,2013-07-06 15:04:00,
2013-07-06 11:09:00,81.9,70.5,30.11,North,0,0.0,0.0,68,0.00,RMK 75.9/50.0,,0.00,WUHU21623XXSP,2013-07-06 15:09:00,
2013-07-06 11:14:00,81.7,69.9,30.11,North,0,0.0,0.0,67,0.00,RMK 75.9/50.0,,0.00,WUHU21623XXSP,2013-07-06 15:14:00,
2013-07-06 11:19:00,82.3,70.9,30.11,ESE,112,0.0,0.0,68,0.00,RMK 75.9/50.0,,0.00,WUHU21623XXSP,2013-07-06 15:19:00,
2013-07-06 11:24:00,82.4,71.0,30.11,SE,135,0.0,0.0,68,0.00,RMK 75.9/50.0,,0.00,WUHU21623XXSP,2013-07-06 15:24:00,
2013-07-06 11:29:00,82.4,70.2,30.10,South,180,0.0,0.0,66,0.00,RMK 75.9/50.0,,0.00,WUHU21623XXSP,2013-07-06 15:29:00,
2013-07-06 11:34:00,83.0,71.2,30.11,SE,135,0.0,0.0,67,0.00,RMK 75.9/50.0,,0.00,WUHU21623XXSP,2013-07-06 15:34:00,
2013-07-06 11:39:00,83.0,70.7,30.11,South,180,0.0,0.0,66,0.00,RMK 75.9/50.0,,0.00,WUHU21623XXSP,2013-07-06 15:39:00,
2013-07-06 11:44:00,83.3,71.0,30.11,SSW,202,0.0,0.0,66,0.00,RMK 75.9/50.0,,0.00,WUHU21623XXSP,2013-07-06 15:44:00,
2013-07-06 11:49:00,82.8,70.5,30.10,SSW,202,0.0,0.0,66,0.00,RMK 75.9/50.0,,0.00,WUHU21623XXSP,2013-07-06 15:49:00,
2013-07-06 11:54:00,82.8,71.4,30.10,SW,225,0.0,0.0,68,0.00,RMK 75.9/50.0,,0.00,WUHU21623XXSP,2013-07-06 15:54:00,
2013-07-06 11:59:00,83.0,71.2,30.10,South,180,0.0,0.0,67,0.00,RMK 75.9/50.0,,0.00,WUHU21623XXSP,2013-07-06 15:59:00,
2013-07-06 12:04:00,83.9,70.7,30.10,SSW,202,0.0,0.0,64,0.00,RMK 75.7/50.0,,0.00,WUHU21623XXSP,2013-07-06 16:04:00,
2013-07-06 12:09:00,83.9,70.7,30.11,WSW,247,0.0,0.0,64,0.00,RMK 75.7/50.0,,0.00,WUHU21623XXSP,2013-07-06 16:09:00,
2013-07-06 12:14:00,84.2,70.5,30.11,SW,225,0.0,0.0,63,0.00,RMK 75.7/50.0,,0.00,WUHU21623XXSP,2013-07-06 16:14:00,
2013-07-06 12:19:00,84.8,71.1,30.10,South,180,0.0,0.0,63,0.00,RMK 75.6/51.0,,0.00,WUHU21623XXSP,2013-07-06 16:19:00,
2013-07-06 12:25:00,85.0,70.3,30.10,SW,225,0.0,0.0,61,0.00,RMK 75.6/51.0,,0.00,WUHU21623XXSP,2013-07-06 16:25:00,
2013-07-06 12:30:00,84.6,69.9,30.10,SSW,202,0.0,0.0,61,0.00,RMK 75.6/51.0,,0.00,WUHU21623XXSP,2013-07-06 16:30:00,
2013-07-06 12:35:00,84.8,70.1,30.10,South,180,0.0,0.0,61,0.00,RMK 75.6/51.0,,0.00,WUHU21623XXSP,2013-07-06 16:35:00,
2013-07-06 12:40:00,84.4,70.2,30.09,SE,135,0.0,0.0,62,0.00,RMK 75.6/51.0,,0.00,WUHU21623XXSP,2013-07-06 16:40:00,
2013-07-06 12:45:00,84.1,70.4,30.09,SSW,202,0.0,0.0,63,0.00,RMK 75.6/51.0,,0.00,WUHU21623XXSP,2013-07-06 16:45:00,
2013-07-06 12:50:00,83.7,70.5,30.09,South,180,0.0,0.0,64,0.00,RMK 75.6/52.0,,0.00,WUHU21623XXSP,2013-07-06 16:50:00,
2013-07-06 12:56:00,83.0,70.3,30.09,SE,135,0.0,0.0,65,0.00,RMK 75.6/52.0,,0.00,WUHU21623XXSP,2013-07-06 16:56:00,
2013-07-06 13:01:00,82.6,70.3,30.09,SW,225,0.0,0.0,66,0.00,RMK 75.6/52.0,,0.00,WUHU21623XXSP,2013-07-06 17:01:00,
2013-07-06 13:06:00,82.3,70.5,30.09,SSW,202,0.0,0.0,67,0.00,RMK 75.6/52.0,,0.00,WUHU21623XXSP,2013-07-06 17:06:00,
2013-07-06 13:11:00,81.9,70.1,30.09,SW,225,0.0,0.0,67,0.00,RMK 75.6/52.0,,0.00,WUHU21623XXSP,2013-07-06 17:11:00,
2013-07-06 13:17:00,83.0,71.6,30.09,WSW,247,0.0,0.0,68,0.00,RMK 75.4/52.0,,0.00,WUHU21623XXSP,2013-07-06 17:17:00,
2013-07-06 13:23:00,83.5,71.6,30.08,South,180,0.0,0.0,67,0.00,RMK 75.4/52.0,,0.00,WUHU21623XXSP,2013-07-06 17:23:00,
2013-07-06 13:28:00,83.9,71.6,30.08,SE,135,0.0,0.0,66,0.00,RMK 75.4/52.0,,0.00,WUHU21623XXSP,2013-07-06 17:28:00,
2013-07-06 13:34:00,83.9,71.1,30.09,SE,135,0.0,0.0,65,0.00,RMK 75.6/52.0,,0.00,WUHU21623XXSP,2013-07-06 17:34:00,
2013-07-06 13:39:00,83.5,70.8,30.09,SE,135,0.0,0.0,65,0.00,RMK 75.6/52.0,,0.00,WUHU21623XXSP,2013-07-06 17:39:00,
2013-07-06 13:44:00,83.3,70.6,30.09,SSW,202,0.0,0.0,65,0.00,RMK 75.6/52.0,,0.00,WUHU21623XXSP,2013-07-06 17:44:00,
2013-07-06 13:49:00,83.2,70.5,30.08,SW,225,0.0,0.0,65,0.00,RMK 75.6/52.0,,0.00,WUHU21623XXSP,2013-07-06 17:49:00,
2013-07-06 13:55:00,83.0,70.3,30.08,SSW,202,0.0,0.0,65,0.00,RMK 75.6/52.0,,0.00,WUHU21623XXSP,2013-07-06 17:55:00,
2013-07-06 14:00:00,83.0,70.7,30.08,WSW,247,0.0,0.0,66,0.00,RMK 75.6/52.0,,0.00,WUHU21623XXSP,2013-07-06 18:00:00,
2013-07-06 14:05:00,83.5,71.6,30.07,SSE,157,0.0,0.0,67,0.00,RMK 75.6/52.0,,0.00,WUHU21623XXSP,2013-07-06 18:05:00,
2013-07-06 14:11:00,83.3,70.6,30.07,SW,225,0.0,0.0,65,0.00,RMK 75.6/52.0,,0.00,WUHU21623XXSP,2013-07-06 18:11:00,
2013-07-06 14:16:00,83.0,69.8,30.07,SSW,202,0.0,0.0,64,0.00,RMK 75.7/52.0,,0.00,WUHU21623XXSP,2013-07-06 18:16:00,
2013-07-06 14:21:00,83.0,70.7,30.07,SE,135,0.0,0.0,66,0.00,RMK 75.7/52.0,,0.00,WUHU21623XXSP,2013-07-06 18:21:00,
2013-07-06 14:26:00,83.0,70.7,30.06,SSW,202,0.0,0.0,66,0.00,RMK 75.9/52.0,,0.00,WUHU21623XXSP,2013-07-06 18:26:00,
2013-07-06 14:31:00,82.8,70.5,30.06,SSW,202,0.0,0.0,66,0.00,RMK 75.9/52.0,,0.00,WUHU21623XXSP,2013-07-06 18:31:00,
2013-07-06 14:37:00,83.0,70.3,30.06,SE,135,0.0,0.0,65,0.00,RMK 76.1/52.0,,0.00,WUHU21623XXSP,2013-07-06 18:37:00,
2013-07-06 14:42:00,83.2,70.9,30.06,South,180,0.0,0.0,66,0.00,RMK 76.1/52.0,,0.00,WUHU21623XXSP,2013-07-06 18:42:00,
2013-07-06 14:47:00,83.2,70.5,30.05,SSW,202,0.0,0.0,65,0.00,RMK 76.1/52.0,,0.00,WUHU21623XXSP,2013-07-06 18:47:00,
2013-07-06 14:52:00,83.0,70.3,30.05,SE,135,0.0,0.0,65,0.00,RMK 76.1/51.0,,0.00,WUHU21623XXSP,2013-07-06 18:52:00,
2013-07-06 14:57:00,83.0,70.3,30.05,SSE,157,0.0,0.0,65,0.00,RMK 76.1/52.0,,0.00,WUHU21623XXSP,2013-07-06 18:57:00,
2013-07-06 15:02:00,82.6,70.8,30.05,SSW,202,0.0,0.0,67,0.00,RMK 76.1/51.0,,0.00,WUHU21623XXSP,2013-07-06 19:02:00,
2013-07-06 15:07:00,82.4,70.6,30.05,South,180,0.0,0.0,67,0.00,RMK 76.1/52.0,,0.00,WUHU21623XXSP,2013-07-06 19:07:00,
2013-07-06 15:13:00,82.1,70.7,30.05,SSW,202,0.0,0.0,68,0.00,RMK 76.1/51.0,,0.00,WUHU21623XXSP,2013-07-06 19:13:00,
2013-07-06 15:18:00,82.3,71.4,30.05,SSW,202,0.0,0.0,69,0.00,RMK 76.1/51.0,,0.00,WUHU21623XXSP,2013-07-06 19:18:00,
2013-07-06 15:24:00,82.4,71.0,30.05,SSW,202,0.0,0.0,68,0.00,RMK 76.1/51.0,,0.00,WUHU21623XXSP,2013-07-06 19:24:00,
2013-07-06 15:29:00,82.4,71.0,30.05,SSE,157,0.0,0.0,68,0.00,RMK 75.9/51.0,,0.00,WUHU21623XXSP,2013-07-06 19:29:00,
2013-07-06 15:34:00,82.1,69.9,30.05,WSW,247,0.0,0.0,66,0.00,RMK 75.9/51.0,,0.00,WUHU21623XXSP,2013-07-06 19:34:00,
2013-07-06 15:39:00,82.3,70.9,30.05,West,270,0.0,0.0,68,0.00,RMK 75.9/51.0,,0.00,WUHU21623XXSP,2013-07-06 19:39:00,
2013-07-06 15:45:00,82.1,71.2,30.05,West,270,0.0,0.0,69,0.00,RMK 75.9/51.0,,0.00,WUHU21623XXSP,2013-07-06 19:45:00,
2013-07-06 15:50:00,82.1,71.2,30.05,South,180,0.0,0.0,69,0.00,RMK 75.9/51.0,,0.00,WUHU21623XXSP,2013-07-06 19:50:00,
2013-07-06 15:56:00,81.7,70.8,30.05,SW,225,0.0,0.0,69,0.00,RMK 75.9/51.0,,0.00,WUHU21623XXSP,2013-07-06 19:56:00,
2013-07-06 16:01:00,81.7,70.8,30.05,SSW,202,0.0,0.0,69,0.00,RMK 75.9/51.0,,0.00,WUHU21623XXSP,2013-07-06 20:01:00,
2013-07-06 16:06:00,81.7,70.8,30.05,SSW,202,0.0,0.0,69,0.00,RMK 75.9/51.0,,0.00,WUHU21623XXSP,2013-07-06 20:06:00,
2013-07-06 16:11:00,81.5,69.7,30.05,South,180,0.0,0.0,67,0.00,RMK 75.9/51.0,,0.00,WUHU21623XXSP,2013-07-06 20:11:00,
2013-07-06 16:17:00,81.5,70.6,30.05,WSW,247,0.0,0.0,69,0.00,RMK 75.9/51.0,,0.00,WUHU21623XXSP,2013-07-06 20:17:00,
2013-07-06 16:22:00,81.5,70.2,30.05,SSW,202,0.0,0.0,68,0.00,RMK 75.9/51.0,,0.00,WUHU21623XXSP,2013-07-06 20:22:00,
2013-07-06 16:28:00,81.5,70.2,30.04,SW,225,0.0,0.0,68,0.00,RMK 75.9/51.0,,0.00,WUHU21623XXSP,2013-07-06 20:28:00,
2013-07-06 16:33:00,81.7,70.4,30.04,SW,225,0.0,0.0,68,0.00,RMK 75.9/52.0,,0.00,WUHU21623XXSP,2013-07-06 20:33:00,
2013-07-06 16:38:00,81.7,70.8,30.04,SE,135,0.0,0.0,69,0.00,RMK 75.9/52.0,,0.00,WUHU21623XXSP,2013-07-06 20:38:00,
2013-07-06 16:44:00,81.5,70.6,30.04,SSE,157,0.0,0.0,69,0.00,RMK 75.9/52.0,,0.00,WUHU21623XXSP,2013-07-06 20:44:00,
2013-07-06 16:49:00,81.5,70.6,30.05,SE,135,0.0,0.0,69,0.00,RMK 75.9/51.0,,0.00,WUHU21623XXSP,2013-07-06 20:49:00,
2013-07-06 16:54:00,81.2,70.7,30.05,South,180,0.0,0.0,70,0.00,RMK 75.9/51.0,,0.00,WUHU21623XXSP,2013-07-06 20:54:00,
2013-07-06 17:00:00,80.8,70.3,30.05,WSW,247,0.0,0.0,70,0.00,RMK 75.9/51.0,,0.00,WUHU21623XXSP,2013-07-06 21:00:00,
2013-07-06 17:05:00,80.6,70.1,30.04,South,180,0.0,0.0,70,0.00,RMK 75.9/51.0,,0.00,WUHU21623XXSP,2013-07-06 21:05:00,
2013-07-06 17:10:00,80.6,70.1,30.04,SW,225,0.0,0.0,70,0.00,RMK 75.9/51.0,,0.00,WUHU21623XXSP,2013-07-06 21:10:00,
2013-07-06 17:15:00,80.6,70.1,30.04,SSW,202,0.0,0.0,70,0.00,RMK 75.9/50.0,,0.00,WUHU21623XXSP,2013-07-06 21:15:00,
2013-07-06 17:20:00,80.6,70.5,30.04,SW,225,0.0,0.0,71,0.00,RMK 75.9/50.0,,0.00,WUHU21623XXSP,2013-07-06 21:20:00,
2013-07-06 17:26:00,80.8,70.7,30.03,SW,225,0.0,0.0,71,0.00,RMK 75.9/50.0,,0.00,WUHU21623XXSP,2013-07-06 21:26:00,
2013-07-06 17:31:00,80.8,70.7,30.03,SW,225,0.0,0.0,71,0.00,RMK 75.9/49.0,,0.00,WUHU21623XXSP,2013-07-06 21:31:00,
2013-07-06 17:36:00,80.8,70.7,30.04,SW,225,0.0,0.0,71,0.00,RMK 75.9/50.0,,0.00,WUHU21623XXSP,2013-07-06 21:36:00,
2013-07-06 17:41:00,80.8,70.7,30.04,SW,225,0.0,0.0,71,0.00,RMK 75.9/50.0,,0.00,WUHU21623XXSP,2013-07-06 21:41:00,
2013-07-06 17:47:00,80.8,70.7,30.04,SW,225,0.0,0.0,71,0.00,RMK 75.9/50.0,,0.00,WUHU21623XXSP,2013-07-06 21:47:00,
2013-07-06 18:08:00,75.2,69.4,30.05,South,180,0.0,0.0,82,0.00,RMK 75.9/50.0,,0.00,WUHU21623XXSP,2013-07-06 22:08:00,
2013-07-06 18:13:00,72.0,67.3,30.05,SSE,157,0.0,0.0,85,0.45,RMK 75.9/51.0,,0.45,WUHU21623XXSP,2013-07-06 22:13:00,
2013-07-06 18:18:00,71.6,67.2,30.04,SE,135,0.0,0.0,86,0.66,RMK 75.9/51.0,,0.66,WUHU21623XXSP,2013-07-06 22:18:00,
2013-07-06 18:23:00,71.3,67.2,30.04,SE,135,0.0,0.0,87,0.74,RMK 75.9/51.0,,0.74,WUHU21623XXSP,2013-07-06 22:23:00,
2013-07-06 18:28:00,71.3,67.2,30.04,SE,135,0.0,0.0,87,0.78,RMK 75.9/50.0,,0.78,WUHU21623XXSP,2013-07-06 22:28:00,
2013-07-06 18:34:00,70.9,67.2,30.03,SE,135,0.0,0.0,88,0.78,RMK 75.9/50.0,,0.78,WUHU21623XXSP,2013-07-06 22:34:00,
2013-07-06 18:39:00,71.1,67.7,30.03,SE,135,0.0,0.0,89,0.78,RMK 75.9/51.0,,0.78,WUHU21623XXSP,2013-07-06 22:39:00,
2013-07-06 18:44:00,71.1,67.7,30.02,SE,135,0.0,0.0,89,0.78,RMK 75.9/51.0,,0.78,WUHU21623XXSP,2013-07-06 22:44:00,
2013-07-06 18:50:00,71.3,67.9,30.02,SE,135,0.0,0.0,89,0.55,RMK 75.9/51.0,,0.78,WUHU21623XXSP,2013-07-06 22:50:00,
2013-07-06 18:55:00,71.3,68.2,30.02,SE,135,0.0,0.0,90,0.55,RMK 75.9/51.0,,0.78,WUHU21623XXSP,2013-07-06 22:55:00,
2013-07-06 19:01:00,71.3,68.2,30.02,SE,135,0.0,0.0,90,0.55,RMK 75.9/50.0,,0.78,WUHU21623XXSP,2013-07-06 23:01:00,
2013-07-06 19:06:00,71.6,68.8,30.02,SE,135,0.0,0.0,91,0.55,RMK 75.9/51.0,,0.78,WUHU21623XXSP,2013-07-06 23:06:00,
2013-07-06 19:11:00,71.8,69.0,30.02,SE,135,0.0,0.0,91,0.33,RMK 75.9/51.0,,0.78,WUHU21623XXSP,2013-07-06 23:11:00,
2013-07-06 19:16:00,72.2,69.4,30.01,SE,135,0.0,0.0,91,0.12,RMK 75.9/50.0,,0.78,WUHU21623XXSP,2013-07-06 23:16:00,
2013-07-06 19:21:00,72.2,69.4,30.01,SE,135,0.0,0.0,91,0.04,RMK 75.9/50.0,,0.78,WUHU21623XXSP,2013-07-06 23:21:00,
2013-07-06 19:27:00,72.4,69.6,30.01,SE,135,0.0,0.0,91,0.00,RMK 75.9/50.0,,0.78,WUHU21623XXSP,2013-07-06 23:27:00,
2013-07-06 19:32:00,72.2,69.4,30.01,SE,135,0.0,0.0,91,0.00,RMK 75.9/50.0,,0.78,WUHU21623XXSP,2013-07-06 23:32:00,
2013-07-06 19:38:00,72.2,69.4,30.02,SE,135,0.0,0.0,91,0.00,RMK 75.9/50.0,,0.78,WUHU21623XXSP,2013-07-06 23:38:00,
2013-07-06 19:43:00,72.4,69.6,30.02,SE,135,0.0,0.0,91,0.00,RMK 75.9/50.0,,0.78,WUHU21623XXSP,2013-07-06 23:43:00,
2013-07-06 19:49:00,72.5,69.7,30.02,SE,135,0.0,0.0,91,0.00,RMK 75.9/50.0,,0.78,WUHU21623XXSP,2013-07-06 23:49:00,
2013-07-06 19:54:00,72.5,70.0,30.02,SE,135,0.0,0.0,92,0.00,RMK 75.9/50.0,,0.78,WUHU21623XXSP,2013-07-06 23:54:00,
2013-07-06 19:59:00,72.7,70.2,30.02,SE,135,0.0,0.0,92,0.00,RMK 75.9/50.0,,0.78,WUHU21623XXSP,2013-07-06 23:59:00,
2013-07-06 20:05:00,72.7,70.2,30.02,SSW,202,0.0,0.0,92,0.00,RMK 75.9/50.0,,0.78,WUHU21623XXSP,2013-07-07 00:05:00,
2013-07-06 20:10:00,72.7,70.2,30.01,SW,225,0.0,0.0,92,0.00,RMK 75.9/50.0,,0.78,WUHU21623XXSP,2013-07-07 00:10:00,
2013-07-06 20:15:00,72.7,70.2,30.01,SSW,202,0.0,0.0,92,0.00,RMK 75.9/50.0,,0.78,WUHU21623XXSP,2013-07-07 00:15:00,
2013-07-06 20:20:00,72.7,70.2,30.01,SSW,202,0.0,0.0,92,0.00,RMK 75.7/50.0,,0.78,WUHU21623XXSP,2013-07-07 00:20:00,
2013-07-06 20:25:00,72.7,70.2,30.01,SSW,202,0.0,0.0,92,0.00,RMK 75.7/50.0,,0.78,WUHU21623XXSP,2013-07-07 00:25:00,
2013-07-06 20:30:00,72.7,70.5,30.02,SSW,202,0.0,0.0,93,0.00,RMK 75.7/50.0,,0.78,WUHU21623XXSP,2013-07-07 00:30:00,
2013-07-06 20:36:00,72.7,70.5,30.02,SSW,202,0.0,0.0,93,0.00,RMK 75.7/50.0,,0.78,WUHU21623XXSP,2013-07-07 00:36:00,
2013-07-06 20:41:00,72.5,70.3,30.02,SSW,202,0.0,0.0,93,0.00,RMK 75.7/51.0,,0.78,WUHU21623XXSP,2013-07-07 00:41:00,
2013-07-06 20:46:00,72.5,70.3,30.02,SSW,202,0.0,0.0,93,0.00,RMK 75.6/51.0,,0.78,WUHU21623XXSP,2013-07-07 00:46:00,
2013-07-06 20:51:00,72.7,70.5,30.02,SSW,202,0.0,0.0,93,0.00,RMK 75.6/50.0,,0.78,WUHU21623XXSP,2013-07-07 00:51:00,
2013-07-06 20:57:00,72.5,70.3,30.02,SSW,202,0.0,0.0,93,0.00,RMK 75.6/51.0,,0.78,WUHU21623XXSP,2013-07-07 00:57:00,
2013-07-06 21:02:00,72.5,70.3,30.02,WSW,247,0.0,0.0,93,0.00,RMK 75.6/51.0,,0.78,WUHU21623XXSP,2013-07-07 01:02:00,
2013-07-06 21:08:00,72.5,70.3,30.02,WSW,247,0.0,0.0,93,0.00,RMK 75.6/50.0,,0.78,WUHU21623XXSP,2013-07-07 01:08:00,
2013-07-06 21:13:00,72.5,70.3,30.02,WSW,247,0.0,0.0,93,0.00,RMK 75.4/51.0,,0.78,WUHU21623XXSP,2013-07-07 01:13:00,
2013-07-06 21:18:00,72.4,70.2,30.03,WSW,247,0.0,0.0,93,0.00,RMK 75.4/50.0,,0.78,WUHU21623XXSP,2013-07-07 01:18:00,
2013-07-06 21:23:00,72.2,70.0,30.02,South,180,0.0,0.0,93,0.00,RMK 75.4/50.0,,0.78,WUHU21623XXSP,2013-07-07 01:23:00,
2013-07-06 21:28:00,72.2,70.0,30.02,SSW,202,0.0,0.0,93,0.00,RMK 75.4/51.0,,0.78,WUHU21623XXSP,2013-07-07 01:28:00,
2013-07-06 21:35:00,72.2,70.0,30.02,WSW,247,0.0,0.0,93,0.00,RMK 75.4/50.0,,0.78,WUHU21623XXSP,2013-07-07 01:35:00,
2013-07-06 21:41:00,72.0,69.8,30.03,SW,225,0.0,0.0,93,0.00,RMK 75.2/50.0,,0.78,WUHU21623XXSP,2013-07-07 01:41:00,
2013-07-06 21:47:00,71.8,69.6,30.03,SW,225,0.0,0.0,93,0.00,RMK 75.2/50.0,,0.78,WUHU21623XXSP,2013-07-07 01:47:00,
2013-07-06 21:52:00,71.8,69.6,30.03,SSW,202,0.0,0.0,93,0.00,RMK 75.2/50.0,,0.78,WUHU21623XXSP,2013-07-07 01:52:00,
2013-07-06 21:57:00,71.8,69.6,30.03,SW,225,0.0,0.0,93,0.00,RMK 75.2/51.0,,0.78,WUHU21623XXSP,2013-07-07 01:57:00,
2013-07-06 22:02:00,71.6,69.4,30.03,SW,225,0.0,0.0,93,0.00,RMK 75.4/53.0,,0.78,WUHU21623XXSP,2013-07-07 02:02:00,
2013-07-06 22:07:00,71.6,69.8,30.03,SW,225,0.0,0.0,94,0.00,RMK 75.4/54.0,,0.78,WUHU21623XXSP,2013-07-07 02:07:00,
2013-07-06 22:13:00,71.5,69.3,30.03,SSW,202,0.0,0.0,93,0.00,RMK 75.6/55.0,,0.78,WUHU21623XXSP,2013-07-07 02:13:00,
2013-07-06 22:18:00,71.3,69.5,30.03,SSW,202,0.0,0.0,94,0.00,RMK 75.7/56.0,,0.78,WUHU21623XXSP,2013-07-07 02:18:00,
2013-07-06 22:23:00,71.3,69.5,30.03,SSW,202,0.0,0.0,94,0.00,RMK 75.9/56.0,,0.78,WUHU21623XXSP,2013-07-07 02:23:00,
2013-07-06 22:29:00,71.3,69.1,30.03,SSW,202,0.0,0.0,93,0.00,RMK 76.1/56.0,,0.78,WUHU21623XXSP,2013-07-07 02:29:00,
2013-07-06 22:34:00,71.3,69.1,30.03,SSW,202,0.0,0.0,93,0.00,RMK 76.3/56.0,,0.78,WUHU21623XXSP,2013-07-07 02:34:00,
2013-07-06 22:39:00,70.9,68.7,30.03,SSW,202,0.0,0.0,93,0.00,RMK 76.3/56.0,,0.78,WUHU21623XXSP,2013-07-07 02:39:00,
2013-07-06 22:45:00,70.9,68.7,30.03,SSW,202,0.0,0.0,93,0.00,RMK 76.3/56.0,,0.78,WUHU21623XXSP,2013-07-07 02:45:00,
2013-07-06 22:51:00,70.9,68.7,30.03,SSW,202,0.0,0.0,93,0.00,RMK 76.5/56.0,,0.78,WUHU21623XXSP,2013-07-07 02:51:00,
2013-07-06 22:56:00,70.9,68.7,30.03,SSW,202,0.0,0.0,93,0.00,RMK 76.5/56.0,,0.78,WUHU21623XXSP,2013-07-07 02:56:00,
2013-07-06 23:01:00,70.9,69.1,30.03,SSW,202,0.0,0.0,94,0.00,RMK 76.5/56.0,,0.78,WUHU21623XXSP,2013-07-07 03:01:00,
2013-07-06 23:07:00,70.9,69.1,30.04,SSW,202,0.0,0.0,94,0.00,RMK 76.5/56.0,,0.78,WUHU21623XXSP,2013-07-07 03:07:00,
2013-07-06 23:12:00,70.9,69.1,30.04,SSW,202,0.0,0.0,94,0.00,RMK 76.5/56.0,,0.78,WUHU21623XXSP,2013-07-07 03:12:00,
2013-07-06 23:17:00,70.9,69.1,30.04,SW,225,0.0,0.0,94,0.00,RMK 76.5/56.0,,0.78,WUHU21623XXSP,2013-07-07 03:17:00,
2013-07-06 23:22:00,70.9,69.1,30.04,SW,225,0.0,0.0,94,0.00,RMK 76.5/56.0,,0.78,WUHU21623XXSP,2013-07-07 03:22:00,
2013-07-06 23:28:00,70.9,69.1,30.04,SW,225,0.0,0.0,94,0.00,RMK 76.5/56.0,,0.78,WUHU21623XXSP,2013-07-07 03:28:00,
2013-07-06 23:33:00,70.9,69.1,30.04,SSW,202,0.0,0.0,94,0.00,RMK 76.6/56.0,,0.78,WUHU21623XXSP,2013-07-07 03:33:00,
2013-07-06 23:38:00,70.7,68.9,30.04,SW,225,0.0,0.0,94,0.00,RMK 76.6/56.0,,0.78,WUHU21623XXSP,2013-07-07 03:38:00,
2013-07-06 23:44:00,70.9,69.1,30.04,SW,225,0.0,0.0,94,0.00,RMK 76.6/56.0,,0.78,WUHU21623XXSP,2013-07-07 03:44:00,
2013-07-06 23:49:00,70.7,68.9,30.04,SW,225,0.0,0.0,94,0.00,RMK 76.6/56.0,,0.78,WUHU21623XXSP,2013-07-07 03:49:00,
2013-07-06 23:54:00,70.7,68.9,30.04,SW,225,0.0,0.0,94,0.00,RMK 76.6/56.0,,0.78,WUHU21623XXSP,2013-07-07 03:54:00,